Time;durP1;ratioP1;P1;durP2;ratioP2;P2;SDS_P1;SDS_P2;PMS_P1;PMS_P2;Temp;Humidity;BMP_temperature;BMP_pressure;BME280_temperature;BME280_humidity;BME280_pressure;Samples;Min_cycle;Max_cycle;Signal;HPM_P1;HPM_P2
2023/12/23 00:00:24;;;;;;;3.83;2.93;;;;;;;7.13;46.74;95403.28;4966978;28;20235;-73
2023/12/23 00:02:51;;;;;;;2.67;2.37;;;;;;;7.61;43.08;95435.63;4967647;28;20227;-73
2023/12/23 00:05:19;;;;;;;2.87;2.60;;;;;;;7.85;42.86;95426.41;4967193;28;20197;-72
2023/12/23 00:07:46;;;;;;;2.80;2.50;;;;;;;8.01;42.33;95444.34;4967679;28;20208;-71
2023/12/23 00:10:14;;;;;;;5.13;3.37;;;;;;;7.59;47.13;95429.72;4967263;28;20215;-72
2023/12/23 00:12:43;;;;;;;8.87;4.47;;;;;;;7.24;48.23;95444.69;4966142;28;20620;-72
2023/12/23 00:15:10;;;;;;;4.93;3.83;;;;;;;6.98;50.25;95432.50;4965404;28;20194;-74
2023/12/23 00:17:37;;;;;;;6.90;3.93;;;;;;;7.16;49.18;95428.88;4966883;28;20205;-75
2023/12/23 00:20:05;;;;;;;7.57;4.03;;;;;;;7.19;48.91;95445.88;4981848;28;20301;-73
2023/12/23 00:22:34;;;;;;;3.10;2.80;;;;;;;7.16;48.55;95440.91;4950117;28;20200;-73
2023/12/23 00:25:03;;;;;;;8.00;3.50;;;;;;;7.15;48.87;95446.97;4965726;28;21093;-72
2023/12/23 00:27:31;;;;;;;4.63;3.13;;;;;;;7.11;49.41;95460.94;4966666;28;20654;-72
2023/12/23 00:29:58;;;;;;;5.70;3.73;;;;;;;6.97;48.97;95442.88;4966113;28;20196;-73
2023/12/23 00:32:30;;;;;;;4.13;3.30;;;;;;;6.84;50.61;95459.94;4949768;28;20211;-72
2023/12/23 00:34:58;;;;;;;5.20;2.90;;;;;;;6.86;50.20;95478.69;4967350;28;20221;-72
2023/12/23 00:37:25;;;;;;;3.17;2.60;;;;;;;6.82;50.26;95490.06;4981845;28;20241;-74
2023/12/23 00:39:52;;;;;;;4.07;2.87;;;;;;;6.72;51.04;95471.72;4981818;28;20243;-72
2023/12/23 00:42:21;;;;;;;5.10;3.20;;;;;;;6.61;50.74;95453.50;4981699;28;20278;-73
2023/12/23 00:44:48;;;;;;;5.40;2.77;;;;;;;6.73;51.00;95462.28;4965608;28;20193;-73
2023/12/23 00:47:16;;;;;;;3.57;2.70;;;;;;;6.76;51.10;95462.13;4965921;28;20231;-73
2023/12/23 00:49:45;;;;;;;3.03;2.73;;;;;;;6.85;50.58;95457.28;4965112;28;20712;-73
2023/12/23 00:52:13;;;;;;;3.77;2.70;;;;;;;6.83;50.84;95459.09;4981860;28;20210;-73
2023/12/23 00:54:40;;;;;;;4.30;2.60;;;;;;;6.83;51.61;95458.25;4981419;28;20189;-74
2023/12/23 00:57:08;;;;;;;5.43;3.00;;;;;;;6.81;52.39;95463.50;4966676;28;20205;-76
2023/12/23 00:59:35;;;;;;;4.70;3.33;;;;;;;6.66;52.16;95472.06;4967050;28;20263;-73
2023/12/23 01:02:02;;;;;;;6.07;3.93;;;;;;;6.53;53.41;95461.63;4967088;28;20699;-73
2023/12/23 01:04:30;;;;;;;5.97;3.77;;;;;;;6.49;53.40;95465.28;4965485;28;20202;-77
2023/12/23 01:06:58;;;;;;;4.47;3.30;;;;;;;6.23;54.04;95431.63;4966542;28;20262;-78
2023/12/23 01:09:25;;;;;;;5.00;2.93;;;;;;;6.36;54.81;95454.03;4981947;28;20213;-78
2023/12/23 01:11:53;;;;;;;3.67;2.87;;;;;;;6.37;55.50;95455.69;4966174;28;20203;-74
2023/12/23 01:14:20;;;;;;;6.67;4.40;;;;;;;6.43;54.08;95449.34;4966589;28;20564;-76
2023/12/23 01:16:47;;;;;;;16.27;5.20;;;;;;;6.13;54.63;95444.16;4966653;28;20285;-73
2023/12/23 01:19:14;;;;;;;5.20;3.70;;;;;;;6.07;55.30;95438.53;4966632;28;20263;-72
2023/12/23 01:21:43;;;;;;;8.30;4.77;;;;;;;6.26;55.05;95449.47;4965391;28;20194;-73
2023/12/23 01:24:10;;;;;;;7.40;5.40;;;;;;;6.21;55.92;95447.16;4966137;28;20290;-73
2023/12/23 01:26:37;;;;;;;5.60;3.50;;;;;;;6.11;55.50;95435.72;4981747;28;20336;-74
2023/12/23 01:29:07;;;;;;;4.30;3.07;;;;;;;6.16;55.75;95449.13;4964671;28;20662;-74
2023/12/23 01:31:34;;;;;;;5.23;3.53;;;;;;;6.04;56.63;95457.50;4969263;28;20195;-72
2023/12/23 01:34:02;;;;;;;3.50;2.90;;;;;;;6.01;56.83;95460.25;4953072;28;20355;-73
2023/12/23 01:36:29;;;;;;;3.93;3.00;;;;;;;5.81;56.27;95465.56;4970120;28;20198;-74
2023/12/23 01:38:57;;;;;;;3.87;2.77;;;;;;;5.84;57.24;95478.28;4970379;28;20579;-71
2023/12/23 01:41:25;;;;;;;4.80;3.20;;;;;;;5.91;57.83;95471.91;4968248;28;20183;-73
2023/12/23 01:43:53;;;;;;;6.03;3.37;;;;;;;5.95;57.68;95455.44;4969436;28;20288;-72
2023/12/23 01:46:20;;;;;;;3.83;2.93;;;;;;;6.01;56.63;95428.56;4969733;28;20226;-73
2023/12/23 01:48:48;;;;;;;3.53;3.23;;;;;;;6.09;57.07;95440.09;4952756;28;20182;-74
2023/12/23 01:51:16;;;;;;;3.27;2.60;;;;;;;6.16;56.65;95425.19;4984915;28;20194;-76
2023/12/23 01:53:44;;;;;;;4.27;2.77;;;;;;;6.13;56.30;95384.22;4969622;28;20576;-73
2023/12/23 01:56:12;;;;;;;3.23;2.77;;;;;;;6.07;56.90;95380.25;4969893;28;20743;-75
2023/12/23 01:58:39;;;;;;;3.47;2.70;;;;;;;6.04;57.47;95400.16;4969642;28;20186;-72
2023/12/23 02:01:06;;;;;;;3.63;2.83;;;;;;;6.19;56.02;95413.00;4968973;28;20237;-77
2023/12/23 02:03:34;;;;;;;2.87;2.40;;;;;;;6.12;56.64;95416.78;4952699;28;20672;-74
2023/12/23 02:06:03;;;;;;;3.67;3.03;;;;;;;6.13;56.90;95415.06;4985657;28;20741;-71
2023/12/23 02:08:30;;;;;;;6.43;4.10;;;;;;;5.96;57.65;95433.94;4968065;28;20210;-73
2023/12/23 02:11:06;;;;;;;8.73;4.13;;;;;;;5.93;57.27;95431.56;4968382;28;20254;-73
2023/12/23 02:13:51;;;;;;;8.17;4.27;;;;;;;6.00;57.03;95414.06;4969672;28;20193;-73
2023/12/23 02:16:18;;;;;;;7.10;3.90;;;;;;;6.04;57.17;95415.56;4983601;28;20193;-72
2023/12/23 02:18:47;;;;;;;4.50;3.13;;;;;;;6.03;56.33;95378.78;4969666;28;20701;-73
2023/12/23 02:21:14;;;;;;;3.20;2.80;;;;;;;5.87;56.59;95371.97;4967697;28;20792;-74
2023/12/23 02:23:41;;;;;;;4.07;3.67;;;;;;;5.96;57.10;95392.84;4969253;28;20206;-71
2023/12/23 02:26:10;;;;;;;3.93;2.93;;;;;;;6.14;57.14;95391.03;4967916;28;20209;-72
2023/12/23 02:28:40;;;;;;;7.40;4.53;;;;;;;6.06;56.97;95393.19;4969711;28;20204;-72
2023/12/23 02:31:09;;;;;;;2.77;2.57;;;;;;;5.95;56.25;95392.94;4969773;28;20284;-73
2023/12/23 02:34:39;;;;;;;3.63;2.80;;;;;;;6.05;56.47;95379.50;4968820;28;20245;-72
2023/12/23 02:37:59;;;;;;;3.03;2.83;;;;;;;6.20;55.76;95381.22;4968546;28;20222;-73
2023/12/23 02:41:21;;;;;;;5.13;4.03;;;;;;;6.36;55.51;95384.63;4968894;28;20585;-72
2023/12/23 02:44:42;;;;;;;3.73;2.60;;;;;;;6.32;55.27;95390.84;4968741;28;20576;-73
2023/12/23 02:48:05;;;;;;;3.43;2.67;;;;;;;6.20;56.76;95359.84;4966895;28;20229;-72
2023/12/23 02:51:26;;;;;;;4.27;2.97;;;;;;;6.17;56.76;95349.72;4967979;28;20199;-72
2023/12/23 02:54:47;;;;;;;3.83;2.87;;;;;;;6.48;55.99;95345.38;4966445;28;21088;-73
2023/12/23 02:58:10;;;;;;;3.43;2.77;;;;;;;6.24;56.61;95344.19;4951384;28;20288;-77
2023/12/23 03:01:31;;;;;;;4.30;3.33;;;;;;;6.40;56.68;95346.72;4966283;28;20397;-74
2023/12/23 03:04:52;;;;;;;3.13;2.40;;;;;;;6.35;56.49;95344.41;4968402;28;20215;-74
2023/12/23 03:08:12;;;;;;;3.97;2.93;;;;;;;6.18;57.72;95369.41;4968231;28;20832;-72
2023/12/23 03:11:36;;;;;;;3.77;2.83;;;;;;;6.22;56.59;95363.97;4968687;28;20196;-73
2023/12/23 03:14:59;;;;;;;3.23;2.70;;;;;;;6.42;57.72;95361.13;4966420;28;20287;-72
2023/12/23 03:18:19;;;;;;;3.50;3.20;;;;;;;6.41;58.00;95333.75;4966407;28;20589;-72
2023/12/23 03:21:40;;;;;;;4.03;3.63;;;;;;;6.37;57.46;95329.72;4966422;28;20190;-72
2023/12/23 03:25:02;;;;;;;3.80;3.37;;;;;;;6.10;58.25;95328.69;4968450;28;20195;-71
2023/12/23 03:28:24;;;;;;;11.10;5.87;;;;;;;5.89;58.41;95355.56;4970917;28;20353;-73
2023/12/23 03:31:46;;;;;;;9.03;5.80;;;;;;;5.59;59.30;95360.56;4969266;28;20234;-72
2023/12/23 03:35:09;;;;;;;7.33;3.83;;;;;;;5.64;60.53;95345.78;4968250;28;20198;-75
2023/12/23 03:38:29;;;;;;;4.73;3.50;;;;;;;5.41;59.17;95337.63;4968522;28;20272;-72
2023/12/23 03:41:51;;;;;;;6.67;4.13;;;;;;;5.47;59.82;95321.88;4969157;28;20285;-72
2023/12/23 03:45:13;;;;;;;10.90;5.33;;;;;;;4.84;62.36;95321.75;4967934;28;20254;-74
2023/12/23 03:48:35;;;;;;;6.90;4.50;;;;;;;5.16;61.72;95324.41;4967457;28;20229;-74
2023/12/23 03:51:56;;;;;;;8.23;3.87;;;;;;;5.28;61.02;95285.28;4967550;28;20270;-72
2023/12/23 03:55:18;;;;;;;5.63;3.80;;;;;;;5.39;60.92;95329.16;4965807;28;20248;-72
2023/12/23 03:58:38;;;;;;;6.07;4.93;;;;;;;5.44;59.91;95316.94;4966617;28;20210;-74
2023/12/23 04:02:01;;;;;;;4.93;3.33;;;;;;;5.52;61.53;95330.19;4966967;28;20729;-72
2023/12/23 04:05:22;;;;;;;6.90;4.50;;;;;;;5.36;60.58;95335.28;4965286;28;20621;-72
2023/12/23 04:08:44;;;;;;;6.33;4.87;;;;;;;5.36;60.68;95348.13;4964853;28;20295;-73
2023/12/23 04:12:04;;;;;;;9.33;5.20;;;;;;;4.93;61.92;95326.44;4966009;28;20663;-71
2023/12/23 04:15:25;;;;;;;8.63;4.90;;;;;;;5.02;62.69;95329.44;4967090;28;20257;-72
2023/12/23 04:18:47;;;;;;;10.07;5.73;;;;;;;4.60;62.89;95296.53;4966788;28;20279;-71
2023/12/23 04:22:07;;;;;;;11.80;6.47;;;;;;;4.71;62.77;95301.97;4965614;28;20664;-72
2023/12/23 04:25:29;;;;;;;9.53;5.77;;;;;;;4.85;62.54;95322.59;4966366;28;20269;-72
2023/12/23 04:28:49;;;;;;;7.87;6.07;;;;;;;5.10;62.38;95307.63;4968443;28;20302;-73
2023/12/23 04:32:10;;;;;;;8.97;5.40;;;;;;;5.25;62.47;95311.13;4966634;28;20196;-72
2023/12/23 04:35:32;;;;;;;9.57;4.90;;;;;;;5.44;61.55;95327.22;4951051;28;20679;-71
2023/12/23 04:38:53;;;;;;;8.70;5.93;;;;;;;5.31;62.39;95305.66;4965147;28;20195;-72
2023/12/23 04:42:15;;;;;;;11.47;7.73;;;;;;;5.38;62.92;95323.19;4966061;28;20307;-73
2023/12/23 04:45:37;;;;;;;11.67;6.87;;;;;;;5.58;62.11;95325.56;4965709;28;20226;-72
2023/12/23 04:48:57;;;;;;;12.43;5.87;;;;;;;5.70;61.84;95318.94;4966503;28;20207;-72
2023/12/23 04:52:19;;;;;;;9.07;5.13;;;;;;;5.67;61.11;95322.47;4964880;28;20205;-72
2023/12/23 04:55:40;;;;;;;7.10;4.90;;;;;;;5.90;60.67;95321.25;4964934;28;20660;-71
2023/12/23 04:59:03;;;;;;;10.27;5.53;;;;;;;5.64;60.02;95304.69;4966014;28;20269;-72
2023/12/23 05:02:24;;;;;;;7.17;5.13;;;;;;;5.75;59.58;95324.63;4965468;28;20243;-73
2023/12/23 05:05:45;;;;;;;8.13;4.90;;;;;;;5.45;59.68;95309.16;4967970;28;20201;-73
2023/12/23 05:09:06;;;;;;;11.93;8.03;;;;;;;5.58;60.83;95314.47;4969255;28;20197;-73
2023/12/23 05:12:26;;;;;;;8.23;6.27;;;;;;;5.38;60.38;95282.13;4969759;28;20213;-76
2023/12/23 05:15:47;;;;;;;9.97;5.70;;;;;;;5.37;61.86;95292.50;4968372;28;20194;-72
2023/12/23 05:19:08;;;;;;;11.23;6.60;;;;;;;5.49;60.15;95294.41;4970138;28;20211;-77
2023/12/23 05:22:29;;;;;;;12.30;6.30;;;;;;;5.31;60.93;95301.34;4970655;28;20226;-75
2023/12/23 05:25:50;;;;;;;12.70;6.67;;;;;;;5.51;61.53;95329.34;4969001;28;20189;-72
2023/12/23 05:29:11;;;;;;;10.77;6.33;;;;;;;5.58;61.05;95288.78;4970288;28;20208;-75
2023/12/23 05:32:34;;;;;;;9.70;6.20;;;;;;;5.68;61.20;95295.91;4953212;28;20198;-75
2023/12/23 05:35:57;;;;;;;9.73;6.40;;;;;;;5.82;60.58;95323.38;4948733;28;20394;-78
2023/12/23 05:39:18;;;;;;;11.47;7.10;;;;;;;5.66;61.69;95299.47;4950767;28;20230;-76
2023/12/23 05:42:39;;;;;;;9.23;6.20;;;;;;;5.78;62.34;95307.31;4950809;28;20281;-78
2023/12/23 05:46:00;;;;;;;12.63;7.87;;;;;;;5.57;61.50;95313.63;4948838;28;20194;-77
2023/12/23 05:49:20;;;;;;;12.00;7.17;;;;;;;5.58;62.52;95317.03;4954995;28;20196;-77
2023/12/23 05:52:41;;;;;;;12.30;8.03;;;;;;;5.69;62.21;95332.66;4980692;28;20253;-77
2023/12/23 05:56:02;;;;;;;18.73;11.70;;;;;;;5.55;62.98;95309.47;4950743;28;20213;-72
2023/12/23 05:59:22;;;;;;;26.03;15.43;;;;;;;5.56;63.42;95311.16;4950993;28;20200;-73
2023/12/23 06:02:43;;;;;;;18.73;9.20;;;;;;;5.49;63.89;95310.63;4950235;28;20235;-72
2023/12/23 06:06:04;;;;;;;20.33;11.73;;;;;;;5.70;61.04;95317.19;4947471;28;20595;-72
2023/12/23 06:09:25;;;;;;;22.23;11.87;;;;;;;5.58;62.03;95311.88;4949991;28;20191;-72
2023/12/23 06:12:47;;;;;;;17.03;10.00;;;;;;;5.88;60.86;95314.53;4950583;28;20215;-71
2023/12/23 06:16:07;;;;;;;19.07;10.57;;;;;;;5.93;60.77;95323.66;4949833;28;20233;-72
2023/12/23 06:19:28;;;;;;;22.93;11.00;;;;;;;5.87;60.75;95336.84;4950137;28;20198;-74
2023/12/23 06:22:49;;;;;;;26.37;12.60;;;;;;;5.92;62.57;95324.56;4950029;28;20660;-74
2023/12/23 06:26:10;;;;;;;14.70;10.30;;;;;;;6.34;60.83;95305.94;4950881;28;20226;-74
2023/12/23 06:29:32;;;;;;;18.47;11.30;;;;;;;6.30;61.74;95295.00;4950392;28;20191;-72
2023/12/23 06:32:54;;;;;;;20.70;10.70;;;;;;;6.61;61.27;95298.38;4949156;28;20269;-76
2023/12/23 06:36:15;;;;;;;15.13;9.17;;;;;;;6.60;60.71;95307.81;4949550;28;20211;-76
2023/12/23 06:39:35;;;;;;;18.37;10.17;;;;;;;6.78;61.01;95296.47;4950104;28;20293;-75
2023/12/23 06:42:56;;;;;;;16.60;9.23;;;;;;;6.84;60.35;95300.44;4950182;28;20291;-72
2023/12/23 06:46:17;;;;;;;21.37;12.13;;;;;;;6.91;60.14;95281.13;4949848;28;21045;-74
2023/12/23 06:49:38;;;;;;;18.20;11.77;;;;;;;7.03;60.41;95298.41;4950205;28;20184;-74
2023/12/23 06:52:58;;;;;;;19.67;11.17;;;;;;;7.04;60.28;95313.78;4949659;28;20200;-75
2023/12/23 06:56:21;;;;;;;15.60;10.50;;;;;;;7.37;59.05;95311.75;4950432;28;20197;-75
2023/12/23 06:59:41;;;;;;;12.13;7.27;;;;;;;7.60;59.01;95288.91;4979711;28;20194;-74
2023/12/23 07:03:02;;;;;;;8.00;4.87;;;;;;;7.99;57.00;95300.13;4949064;28;20207;-72
2023/12/23 07:06:24;;;;;;;4.80;4.23;;;;;;;8.28;56.93;95307.75;4946816;28;20272;-75
2023/12/23 07:09:44;;;;;;;6.73;3.60;;;;;;;8.62;55.67;95333.00;4980009;28;20192;-73
2023/12/23 07:13:05;;;;;;;7.27;4.13;;;;;;;8.90;55.17;95307.06;4949233;28;20192;-73
2023/12/23 07:16:26;;;;;;;4.57;3.53;;;;;;;8.69;54.97;95288.66;4948517;28;20204;-75
2023/12/23 07:19:46;;;;;;;3.07;2.73;;;;;;;8.87;54.47;95279.69;4948458;28;20278;-76
2023/12/23 07:23:09;;;;;;;3.90;3.47;;;;;;;8.95;54.79;95286.91;4948305;28;20196;-75
2023/12/23 07:26:30;;;;;;;17.10;8.80;;;;;;;9.04;55.64;95301.78;4950672;28;20292;-73
2023/12/23 07:29:51;;;;;;;19.43;10.07;;;;;;;9.15;54.42;95301.06;4948743;28;20193;-74
2023/12/23 07:33:12;;;;;;;9.70;3.77;;;;;;;8.98;54.32;95278.97;4949762;28;20213;-73
2023/12/23 07:36:33;;;;;;;7.50;4.03;;;;;;;9.30;53.88;95293.09;4946827;28;20288;-75
2023/12/23 07:39:59;;;;;;;9.50;4.60;;;;;;;9.42;53.65;95305.16;4947217;28;20793;-75
2023/12/23 07:43:23;;;;;;;9.63;4.13;;;;;;;9.54;53.67;95317.22;4974640;28;20203;-75
2023/12/23 07:46:05;;;;;;;4.80;4.00;;;;;;;9.68;53.09;95305.94;4946637;29;20285;-73
2023/12/23 07:48:33;;;;;;;7.10;4.47;;;;;;;9.58;52.86;95300.56;4948349;28;20239;-76
2023/12/23 07:51:09;;;;;;;5.30;3.50;;;;;;;9.47;53.32;95300.50;4948787;28;20197;-77
2023/12/23 07:53:38;;;;;;;4.80;3.33;;;;;;;9.61;53.16;95318.47;4946588;28;20596;-74
2023/12/23 07:56:07;;;;;;;4.27;3.40;;;;;;;9.66;52.98;95315.56;4947401;29;20213;-74
2023/12/23 07:58:34;;;;;;;6.63;3.70;;;;;;;9.42;53.27;95292.25;4948112;28;20677;-78
2023/12/23 08:01:02;;;;;;;3.00;2.70;;;;;;;9.29;53.48;95270.78;4948706;28;20237;-75
2023/12/23 08:03:29;;;;;;;4.77;3.67;;;;;;;9.66;53.45;95351.75;4949417;28;20260;-73
2023/12/23 08:05:56;;;;;;;7.40;5.43;;;;;;;9.69;53.55;95344.59;4947771;28;20672;-73
2023/12/23 08:08:26;;;;;;;5.13;3.60;;;;;;;9.76;53.18;95351.00;4947448;28;20692;-73
2023/12/23 08:10:57;;;;;;;7.83;4.10;;;;;;;10.03;52.75;95366.34;4947635;28;20206;-75
2023/12/23 08:13:24;;;;;;;7.50;4.10;;;;;;;10.06;52.88;95371.28;4948322;28;20217;-75
2023/12/23 08:15:52;;;;;;;7.63;4.93;;;;;;;10.07;52.71;95369.53;4945875;29;20202;-74
2023/12/23 08:18:20;;;;;;;8.27;5.03;;;;;;;10.13;53.57;95382.06;4930895;29;21051;-74
2023/12/23 08:20:47;;;;;;;6.40;3.80;;;;;;;10.26;52.30;95398.41;4947576;28;20733;-72
2023/12/23 08:23:14;;;;;;;5.00;3.17;;;;;;;10.35;52.76;95413.25;4947866;28;20193;-74
2023/12/23 08:25:44;;;;;;;7.47;4.40;;;;;;;10.19;52.98;95360.94;4947837;28;20252;-72
2023/12/23 08:28:11;;;;;;;5.03;3.70;;;;;;;10.34;52.67;95396.91;4947186;28;20244;-75
2023/12/23 08:30:39;;;;;;;5.87;3.83;;;;;;;10.27;52.91;95400.88;4946684;28;20638;-73
2023/12/23 08:33:06;;;;;;;7.60;3.80;;;;;;;10.13;52.49;95388.09;4947286;28;20260;-74
2023/12/23 08:35:33;;;;;;;3.63;3.17;;;;;;;10.41;52.90;95433.50;4947838;28;20189;-75
2023/12/23 08:38:01;;;;;;;5.43;3.70;;;;;;;10.39;53.33;95450.91;4945782;28;20190;-75
2023/12/23 08:40:28;;;;;;;4.83;3.57;;;;;;;10.30;53.17;95443.81;4947448;28;20224;-74
2023/12/23 08:42:57;;;;;;;9.03;4.33;;;;;;;10.16;56.38;95480.16;4947880;28;20221;-75
2023/12/23 08:45:26;;;;;;;6.27;3.03;;;;;;;9.80;61.34;95481.72;4947413;28;20292;-72
2023/12/23 08:47:53;;;;;;;3.80;2.40;;;;;;;9.43;63.66;95495.44;4946604;29;20230;-78
2023/12/23 08:50:22;;;;;;;3.63;2.63;;;;;;;9.25;64.99;95521.63;4947101;28;20867;-76
2023/12/23 08:52:50;;;;;;;2.93;2.63;;;;;;;8.98;66.06;95509.53;4946630;29;20539;-76
2023/12/23 08:55:18;;;;;;;5.20;2.60;;;;;;;8.81;66.87;95517.56;4946609;28;20621;-77
2023/12/23 08:57:45;;;;;;;5.47;2.60;;;;;;;8.68;68.24;95508.91;4947367;28;20201;-73
2023/12/23 09:00:13;;;;;;;3.83;3.10;;;;;;;8.67;68.36;95503.84;4947493;28;20288;-73
2023/12/23 09:02:41;;;;;;;3.40;2.50;;;;;;;8.60;68.91;95503.41;4947311;28;20547;-76
2023/12/23 09:05:09;;;;;;;3.20;2.23;;;;;;;8.49;68.24;95516.13;4948162;28;20189;-78
2023/12/23 09:07:36;;;;;;;2.43;2.23;;;;;;;8.54;68.86;95539.06;4945730;28;20252;-73
2023/12/23 09:10:05;;;;;;;2.87;2.53;;;;;;;8.45;68.96;95573.19;4948007;28;20288;-75
2023/12/23 09:12:33;;;;;;;1.83;1.73;;;;;;;8.38;69.13;95548.69;4947019;28;20197;-77
2023/12/23 09:15:00;;;;;;;3.07;2.63;;;;;;;8.30;69.10;95545.75;4947178;28;20200;-74
2023/12/23 09:17:30;;;;;;;2.70;2.00;;;;;;;8.43;68.48;95567.31;4947345;28;20209;-73
2023/12/23 09:20:01;;;;;;;1.80;1.70;;;;;;;8.07;68.09;95563.41;4946718;28;20755;-73
2023/12/23 09:22:30;;;;;;;2.47;2.27;;;;;;;8.27;69.40;95656.81;4948234;28;20277;-76
2023/12/23 09:24:57;;;;;;;3.90;2.00;;;;;;;8.20;69.40;95654.56;4945139;29;20188;-75
2023/12/23 09:27:24;;;;;;;2.83;2.43;;;;;;;8.11;70.75;95626.75;4947241;28;20221;-73
2023/12/23 09:29:51;;;;;;;2.40;2.20;;;;;;;8.17;71.37;95647.00;4945360;29;20202;-79
2023/12/23 09:32:20;;;;;;;3.47;2.90;;;;;;;7.95;72.87;95651.75;4947191;28;20198;-78
2023/12/23 09:34:51;;;;;;;3.47;2.73;;;;;;;8.12;72.16;95649.03;4977420;28;20209;-78
2023/12/23 09:37:19;;;;;;;3.00;2.53;;;;;;;8.11;72.45;95660.25;4945584;29;21481;-76
2023/12/23 09:39:46;;;;;;;3.07;2.63;;;;;;;8.21;72.08;95666.53;4947151;28;20234;-77
2023/12/23 09:42:13;;;;;;;4.23;3.00;;;;;;;7.99;72.54;95637.78;4944610;29;20357;-76
2023/12/23 09:44:41;;;;;;;9.03;4.10;;;;;;;7.93;72.47;95614.91;4946880;28;20206;-76
2023/12/23 09:47:08;;;;;;;4.30;2.83;;;;;;;8.34;71.62;95665.84;4946268;28;20283;-77
2023/12/23 09:49:36;;;;;;;3.37;3.00;;;;;;;8.40;70.83;95665.50;4946903;28;20216;-76
2023/12/23 09:52:04;;;;;;;4.33;3.67;;;;;;;8.51;70.84;95660.53;4949627;28;20225;-73
2023/12/23 09:54:40;;;;;;;3.80;3.13;;;;;;;8.47;70.06;95665.03;4951234;28;20204;-76
2023/12/23 09:57:08;;;;;;;4.47;3.60;;;;;;;8.60;69.98;95667.69;4952093;28;20189;-75
2023/12/23 09:59:35;;;;;;;4.37;3.37;;;;;;;8.55;69.66;95678.28;4965124;28;20556;-76
2023/12/23 10:02:02;;;;;;;3.40;3.10;;;;;;;8.53;68.07;95669.81;4961738;28;20227;-73
2023/12/23 10:04:30;;;;;;;4.37;3.53;;;;;;;8.59;68.27;95692.69;4997240;28;20275;-78
2023/12/23 10:06:57;;;;;;;3.47;2.97;;;;;;;8.12;68.80;95646.44;4954951;28;20228;-73
2023/12/23 10:09:27;;;;;;;3.93;3.30;;;;;;;8.60;67.13;95709.00;4952039;28;20229;-76
2023/12/23 10:11:54;;;;;;;3.90;3.60;;;;;;;8.49;68.50;95698.50;4950816;28;20276;-76
2023/12/23 10:14:25;;;;;;;3.03;2.73;;;;;;;8.61;68.25;95696.03;4950607;28;20196;-75
2023/12/23 10:16:53;;;;;;;4.37;3.53;;;;;;;8.53;68.30;95692.22;4948202;28;20193;-78
2023/12/23 10:19:21;;;;;;;4.03;2.93;;;;;;;8.42;67.72;95692.84;4950642;28;20193;-76
2023/12/23 10:21:48;;;;;;;3.57;3.23;;;;;;;8.59;67.33;95709.94;4950318;28;20548;-75
2023/12/23 10:24:16;;;;;;;4.73;2.67;;;;;;;8.51;65.89;95712.13;4949875;28;20213;-74
2023/12/23 10:26:43;;;;;;;2.77;2.57;;;;;;;8.41;66.00;95706.66;4952554;28;20208;-72
2023/12/23 10:29:10;;;;;;;3.77;3.40;;;;;;;8.56;65.48;95738.47;4950334;28;20272;-75
2023/12/23 10:31:39;;;;;;;4.53;3.13;;;;;;;8.73;65.84;95728.00;4949300;29;20545;-78
2023/12/23 10:34:11;;;;;;;4.80;3.67;;;;;;;8.68;65.38;95699.03;4949178;28;20200;-80
2023/12/23 10:36:41;;;;;;;4.43;2.80;;;;;;;8.96;65.11;95709.38;4948661;28;20649;-74
2023/12/23 10:39:21;;;;;;;3.23;2.73;;;;;;;8.89;65.05;95708.09;4949482;28;20190;-76
2023/12/23 10:41:58;;;;;;;2.63;2.40;;;;;;;8.83;64.88;95708.47;4949850;28;20193;-74
2023/12/23 10:44:27;;;;;;;2.90;2.63;;;;;;;8.72;63.48;95716.00;4949767;28;20311;-77
2023/12/23 10:46:55;;;;;;;4.93;3.47;;;;;;;8.74;63.58;95702.09;4949324;28;20204;-77
2023/12/23 10:49:24;;;;;;;5.13;4.20;;;;;;;8.62;63.39;95681.34;4949904;28;20228;-72
2023/12/23 10:51:54;;;;;;;10.57;3.87;;;;;;;8.68;63.45;95706.78;4949317;28;20647;-73
2023/12/23 10:54:35;;;;;;;4.00;3.60;;;;;;;8.71;63.65;95709.19;4979776;28;20628;-73
2023/12/23 10:57:04;;;;;;;7.10;2.97;;;;;;;8.85;63.28;95719.50;4949100;28;20204;-72
2023/12/23 10:59:31;;;;;;;4.97;3.83;;;;;;;8.94;62.86;95739.63;4949001;28;20288;-72
2023/12/23 11:02:07;;;;;;;3.57;2.37;;;;;;;8.87;62.59;95736.59;4949353;28;20272;-76
2023/12/23 11:04:35;;;;;;;2.20;2.00;;;;;;;8.90;61.39;95738.97;4948746;28;20238;-72
2023/12/23 11:07:03;;;;;;;3.17;2.67;;;;;;;9.09;60.87;95730.94;4949218;28;20216;-73
2023/12/23 11:09:31;;;;;;;5.07;2.20;;;;;;;8.44;61.31;95642.00;4948915;28;20233;-76
2023/12/23 11:11:58;;;;;;;3.13;2.83;;;;;;;8.80;61.59;95681.06;4948965;28;20204;-77
2023/12/23 11:14:26;;;;;;;2.67;2.17;;;;;;;8.84;60.37;95674.00;4949529;28;20202;-75
2023/12/23 11:16:58;;;;;;;4.07;2.47;;;;;;;8.81;61.44;95698.22;4949588;28;20288;-74
2023/12/23 11:19:25;;;;;;;3.63;3.17;;;;;;;8.85;60.98;95701.44;4949764;28;20720;-73
2023/12/23 11:22:25;;;;;;;4.93;2.30;;;;;;;9.05;60.70;95719.13;4948771;28;20192;-78
2023/12/23 11:24:54;;;;;;;5.30;3.73;;;;;;;9.05;59.87;95726.88;4947015;28;20196;-73
2023/12/23 11:27:43;;;;;;;3.90;2.10;;;;;;;9.10;60.45;95688.72;4973840;28;20221;-75
2023/12/23 11:30:11;;;;;;;9.17;3.33;;;;;;;9.11;60.04;95695.50;4947119;28;21413;-73
2023/12/23 11:32:43;;;;;;;5.47;4.50;;;;;;;8.93;59.75;95676.84;4947375;28;20189;-74
2023/12/23 11:35:12;;;;;;;3.50;2.70;;;;;;;9.05;59.25;95723.50;4947020;28;20236;-74
2023/12/23 11:37:55;;;;;;;6.00;2.73;;;;;;;8.97;59.33;95714.44;4979267;28;20201;-74
2023/12/23 11:40:23;;;;;;;2.70;2.50;;;;;;;9.13;59.40;95716.09;4948523;28;20292;-74
2023/12/23 11:42:52;;;;;;;4.00;2.97;;;;;;;9.35;59.33;95696.59;4946826;29;20268;-73
2023/12/23 11:45:20;;;;;;;18.27;7.47;;;;;;;9.16;58.36;95701.25;4948293;28;20201;-77
2023/12/23 11:47:49;;;;;;;5.57;3.50;;;;;;;8.89;59.43;95680.53;4947815;28;20224;-76
2023/12/23 11:50:17;;;;;;;6.20;2.20;;;;;;;8.93;59.43;95697.47;4948865;28;20209;-75
2023/12/23 11:52:46;;;;;;;12.87;4.83;;;;;;;8.83;59.78;95711.03;4948003;28;20272;-76
2023/12/23 11:55:15;;;;;;;90.47;32.63;;;;;;;8.83;59.93;95719.63;4948464;28;20268;-76
2023/12/23 11:57:42;;;;;;;3.30;2.60;;;;;;;8.97;60.38;95736.84;4948396;28;20525;-74
2023/12/23 12:00:13;;;;;;;8.20;2.80;;;;;;;8.81;60.13;95713.72;4947719;28;20229;-77
2023/12/23 12:02:40;;;;;;;5.33;2.77;;;;;;;8.73;59.88;95715.94;4946691;28;20201;-76
2023/12/23 12:05:07;;;;;;;3.90;2.20;;;;;;;8.69;60.60;95723.94;4948190;28;20205;-77
2023/12/23 12:07:35;;;;;;;3.67;2.47;;;;;;;8.75;58.55;95723.56;4947933;28;20220;-78
2023/12/23 12:10:05;;;;;;;4.03;2.77;;;;;;;8.67;58.73;95718.88;4946531;29;20429;-77
2023/12/23 12:12:34;;;;;;;3.43;2.37;;;;;;;8.77;58.95;95726.88;4948393;28;20189;-74
2023/12/23 12:15:05;;;;;;;2.80;2.20;;;;;;;8.66;59.41;95718.94;4947286;28;20707;-73
2023/12/23 12:17:32;;;;;;;3.00;2.10;;;;;;;8.66;59.61;95732.69;4978844;28;20219;-72
2023/12/23 12:20:00;;;;;;;2.90;2.60;;;;;;;8.59;59.51;95752.03;4947916;28;20205;-75
2023/12/23 12:22:31;;;;;;;5.30;3.00;;;;;;;8.66;59.38;95757.66;4947736;28;20220;-72
2023/12/23 12:24:59;;;;;;;5.07;2.87;;;;;;;8.62;59.94;95725.22;4948206;28;20197;-76
2023/12/23 12:27:26;;;;;;;3.33;2.60;;;;;;;8.80;59.32;95761.09;4947705;28;20275;-76
2023/12/23 12:29:54;;;;;;;2.70;2.30;;;;;;;8.50;59.55;95738.84;4948670;28;20207;-74
2023/12/23 12:32:24;;;;;;;5.03;2.33;;;;;;;8.65;59.63;95763.75;4947785;28;20205;-73
2023/12/23 12:35:01;;;;;;;2.70;2.50;;;;;;;8.61;59.51;95773.44;4948024;28;20220;-73
2023/12/23 12:37:30;;;;;;;2.20;2.00;;;;;;;8.66;59.96;95786.03;4978383;28;20209;-75
2023/12/23 12:39:59;;;;;;;2.67;2.43;;;;;;;8.58;60.56;95777.91;4947506;28;20189;-77
2023/12/23 12:42:35;;;;;;;5.17;2.20;;;;;;;8.45;61.75;95767.47;4947934;28;20277;-74
2023/12/23 12:45:03;;;;;;;2.53;2.17;;;;;;;8.36;61.79;95787.81;4945893;28;20209;-76
2023/12/23 12:47:31;;;;;;;2.97;2.63;;;;;;;8.49;61.89;95791.38;4947676;28;20193;-75
2023/12/23 12:50:02;;;;;;;5.93;4.60;;;;;;;8.62;61.65;95811.19;4948010;28;20228;-74
2023/12/23 12:52:34;;;;;;;4.10;3.03;;;;;;;8.76;61.16;95800.06;4947831;28;20280;-74
2023/12/23 12:55:06;;;;;;;4.60;2.93;;;;;;;8.69;61.15;95806.53;4947149;29;20193;-75
2023/12/23 12:57:34;;;;;;;2.97;2.37;;;;;;;8.58;61.59;95786.50;4948208;28;20205;-78
2023/12/23 13:00:01;;;;;;;3.00;1.80;;;;;;;8.61;60.53;95777.75;4946868;28;20685;-76
2023/12/23 13:02:30;;;;;;;2.07;1.87;;;;;;;8.61;59.67;95812.13;4947321;28;20215;-75
2023/12/23 13:04:57;;;;;;;3.07;1.87;;;;;;;8.44;59.37;95801.09;4947733;28;20211;-76
2023/12/23 13:07:24;;;;;;;3.50;1.70;;;;;;;8.47;59.25;95837.06;4947571;28;20268;-76